Time;durP1;ratioP1;P1;durP2;ratioP2;P2;SDS_P1;SDS_P2;PMS_P1;PMS_P2;Temp;Humidity;BMP_temperature;BMP_pressure;BME280_temperature;BME280_humidity;BME280_pressure;Samples;Min_cycle;Max_cycle;Signal;HPM_P1;HPM_P2
2021/11/30 00:01:23;;;;;;;7.55;4.80;;;6.40;97.00;;;;;;4933037;29;20035;-64
2021/11/30 00:03:49;;;;;;;7.38;4.88;;;6.40;96.90;;;;;;4933749;29;20040;-63
2021/11/30 00:06:15;;;;;;;7.80;5.38;;;6.40;96.90;;;;;;4932843;29;20032;-64
2021/11/30 00:08:41;;;;;;;7.53;4.90;;;6.40;96.90;;;;;;4933967;29;20027;-63
2021/11/30 00:11:10;;;;;;;8.25;5.35;;;6.30;96.90;;;;;;4932424;29;20562;-63
2021/11/30 00:13:38;;;;;;;9.40;5.50;;;6.30;96.90;;;;;;4932651;29;20484;-64
2021/11/30 00:16:05;;;;;;;7.30;5.10;;;6.30;96.90;;;;;;4933655;29;20403;-64
2021/11/30 00:18:33;;;;;;;9.57;5.80;;;6.30;96.90;;;;;;4934069;29;20036;-63
2021/11/30 00:21:10;;;;;;;10.27;6.25;;;6.30;96.90;;;;;;4947984;29;20067;-64
2021/11/30 00:23:37;;;;;;;8.98;5.40;;;6.30;96.90;;;;;;4933508;29;20119;-64
2021/11/30 00:26:05;;;;;;;8.85;5.70;;;6.30;96.90;;;;;;4932896;29;20095;-64
2021/11/30 00:28:30;;;;;;;10.65;6.85;;;6.30;96.90;;;;;;4932403;29;20075;-64
2021/11/30 00:30:56;;;;;;;10.38;6.65;;;6.30;96.90;;;;;;4933120;29;20024;-64
2021/11/30 00:33:22;;;;;;;11.57;7.63;;;6.30;97.00;;;;;;4934007;29;20035;-63
2021/11/30 00:35:48;;;;;;;13.23;7.57;;;6.20;97.00;;;;;;4933840;29;20485;-63
2021/11/30 00:38:16;;;;;;;12.88;7.40;;;6.20;97.20;;;;;;4935823;29;20043;-63
2021/11/30 00:40:42;;;;;;;11.73;7.15;;;6.20;97.00;;;;;;4936073;29;20083;-63
2021/11/30 00:43:09;;;;;;;10.43;6.97;;;6.20;97.00;;;;;;4937393;29;20071;-63
2021/11/30 00:45:39;;;;;;;13.75;7.63;;;6.20;97.00;;;;;;4933684;29;20036;-63
2021/11/30 00:48:09;;;;;;;11.52;7.32;;;6.20;96.90;;;;;;4937048;29;20052;-63
2021/11/30 00:50:38;;;;;;;10.63;7.00;;;6.20;97.10;;;;;;4936005;29;20036;-63
2021/11/30 00:53:04;;;;;;;11.85;7.95;;;6.20;97.00;;;;;;4936961;29;20046;-63
2021/11/30 00:55:30;;;;;;;12.10;7.72;;;6.20;96.90;;;;;;4935863;29;20114;-62
2021/11/30 00:57:56;;;;;;;11.77;7.45;;;6.20;96.90;;;;;;4937490;29;20036;-63
2021/11/30 01:00:21;;;;;;;11.85;7.43;;;6.20;96.90;;;;;;4936874;29;20491;-63
2021/11/30 01:02:48;;;;;;;12.65;7.57;;;6.20;96.90;;;;;;4936313;29;20119;-62
2021/11/30 01:05:15;;;;;;;13.52;8.15;;;6.20;97.00;;;;;;4950804;29;20118;-62
2021/11/30 01:07:41;;;;;;;12.20;8.48;;;6.20;96.90;;;;;;4934893;29;20156;-62
2021/11/30 01:10:10;;;;;;;13.13;8.43;;;6.20;97.00;;;;;;4936975;29;20511;-63
2021/11/30 01:12:36;;;;;;;13.75;7.95;;;6.20;96.90;;;;;;4935780;29;20038;-63
2021/11/30 01:15:06;;;;;;;11.98;7.60;;;6.20;96.90;;;;;;4935033;29;20479;-63
2021/11/30 01:17:31;;;;;;;10.52;7.40;;;6.20;96.80;;;;;;4935444;29;20606;-63
2021/11/30 01:19:57;;;;;;;12.93;8.52;;;6.20;96.90;;;;;;4934666;29;20106;-63
2021/11/30 01:22:23;;;;;;;11.13;7.40;;;6.20;96.80;;;;;;4950698;29;20122;-63
2021/11/30 01:24:49;;;;;;;12.75;8.23;;;6.20;96.80;;;;;;4935783;29;20032;-63
2021/11/30 01:27:15;;;;;;;12.70;8.38;;;6.30;96.90;;;;;;4936025;29;20047;-63
2021/11/30 01:29:41;;;;;;;14.07;8.65;;;6.30;96.80;;;;;;4935900;29;20042;-63
2021/11/30 01:32:07;;;;;;;12.27;8.52;;;6.30;96.80;;;;;;4936677;29;20040;-62
2021/11/30 01:34:33;;;;;;;12.02;7.63;;;6.30;96.80;;;;;;4934543;29;20032;-62
2021/11/30 01:36:58;;;;;;;10.95;7.07;;;6.30;96.70;;;;;;4936546;29;20055;-63
2021/11/30 01:39:25;;;;;;;12.98;8.25;;;6.30;96.70;;;;;;4935485;29;20032;-62
2021/11/30 01:41:52;;;;;;;13.00;7.63;;;6.30;96.70;;;;;;4936600;29;20042;-63
2021/11/30 01:44:39;;;;;;;13.13;8.30;;;6.30;96.70;;;;;;4935310;29;20044;-62
2021/11/30 01:49:51;;;;;;;12.82;8.30;;;6.30;96.60;;;;;;4936055;29;20035;-62
2021/11/30 01:52:17;;;;;;;12.90;8.48;;;6.30;96.60;;;;;;4936644;29;20038;-62
2021/11/30 01:54:44;;;;;;;13.63;8.45;;;6.30;96.60;;;;;;4934386;29;20040;-62
2021/11/30 01:57:12;;;;;;;15.52;10.48;;;6.30;96.60;;;;;;4917334;29;20028;-62
2021/11/30 01:59:39;;;;;;;13.35;8.35;;;6.30;96.60;;;;;;4923396;29;20039;-62
2021/11/30 02:02:05;;;;;;;12.15;7.35;;;6.30;96.50;;;;;;4934990;29;20489;-62
2021/11/30 02:04:30;;;;;;;13.95;8.98;;;6.30;96.50;;;;;;4932342;29;20024;-62
2021/11/30 02:06:56;;;;;;;13.40;9.18;;;6.30;96.50;;;;;;4935846;29;20040;-62
2021/11/30 02:09:22;;;;;;;12.38;8.25;;;6.30;96.40;;;;;;4934198;29;20028;-62
2021/11/30 02:11:48;;;;;;;14.63;9.30;;;6.30;96.40;;;;;;4936087;29;20420;-62
2021/11/30 02:14:14;;;;;;;13.50;9.10;;;6.30;96.30;;;;;;4934567;29;20028;-62
2021/11/30 02:16:40;;;;;;;14.00;8.88;;;6.20;96.30;;;;;;4935135;29;20031;-62
2021/11/30 02:19:06;;;;;;;13.68;8.82;;;6.30;96.30;;;;;;4934572;29;20557;-63
2021/11/30 02:21:36;;;;;;;19.45;9.23;;;6.30;96.30;;;;;;4935922;29;20024;-63
2021/11/30 02:24:03;;;;;;;16.77;9.48;;;6.20;96.20;;;;;;4934055;29;20039;-63
2021/11/30 02:26:30;;;;;;;15.02;9.90;;;6.20;96.20;;;;;;4935394;29;20023;-63
2021/11/30 02:28:57;;;;;;;15.88;9.52;;;6.20;96.10;;;;;;4935069;29;20039;-63
2021/11/30 02:31:26;;;;;;;12.90;7.82;;;6.20;96.10;;;;;;4949621;29;20028;-63
2021/11/30 02:33:52;;;;;;;16.27;9.93;;;6.20;96.10;;;;;;4935101;29;20028;-62
2021/11/30 02:36:38;;;;;;;12.90;8.70;;;6.20;96.10;;;;;;4935219;29;20435;-62
2021/11/30 02:39:07;;;;;;;14.55;9.68;;;6.20;96.20;;;;;;4934546;29;20376;-62
2021/11/30 02:41:35;;;;;;;13.63;9.05;;;6.20;96.20;;;;;;4928025;29;20171;-62
2021/11/30 02:44:00;;;;;;;14.75;9.80;;;6.20;96.20;;;;;;4928723;29;20534;-63
2021/11/30 02:46:41;;;;;;;14.40;9.25;;;6.20;96.20;;;;;;4935184;29;20040;-62
2021/11/30 02:49:09;;;;;;;15.40;9.35;;;6.20;96.20;;;;;;4933614;29;20402;-63
2021/11/30 02:51:37;;;;;;;16.27;9.95;;;6.20;96.20;;;;;;4935225;29;20042;-62
2021/11/30 02:54:11;;;;;;;16.52;10.27;;;6.20;96.10;;;;;;4934233;29;20032;-62
2021/11/30 02:56:49;;;;;;;15.65;10.07;;;6.30;96.20;;;;;;4935052;29;20034;-63
2021/11/30 02:59:16;;;;;;;16.52;10.45;;;6.20;96.20;;;;;;4930386;29;20492;-63
2021/11/30 03:01:50;;;;;;;16.80;10.73;;;6.20;96.20;;;;;;4934561;29;20106;-62
2021/11/30 03:04:16;;;;;;;16.38;10.80;;;6.20;96.20;;;;;;4931222;29;20495;-62
2021/11/30 03:06:42;;;;;;;19.05;10.88;;;6.20;96.20;;;;;;4934302;29;20143;-62
2021/11/30 03:09:09;;;;;;;16.95;10.35;;;6.10;96.20;;;;;;4934235;29;20063;-63
2021/11/30 03:11:35;;;;;;;17.20;10.73;;;6.10;96.30;;;;;;4933781;29;20484;-62
2021/11/30 03:14:01;;;;;;;18.73;11.07;;;6.10;96.30;;;;;;4934193;29;20044;-62
2021/11/30 03:16:27;;;;;;;18.52;11.23;;;6.10;96.30;;;;;;4933870;29;20488;-62
2021/11/30 03:18:53;;;;;;;17.75;10.77;;;6.10;96.30;;;;;;4933522;29;20031;-62
2021/11/30 03:21:19;;;;;;;18.92;11.98;;;6.10;96.40;;;;;;4934380;29;20035;-62
2021/11/30 03:23:45;;;;;;;21.05;11.65;;;6.10;96.30;;;;;;4924280;29;20488;-62
2021/11/30 03:26:11;;;;;;;17.30;10.90;;;6.10;96.30;;;;;;4926968;29;20042;-62
2021/11/30 03:28:37;;;;;;;17.33;11.73;;;6.10;96.30;;;;;;4932579;29;20131;-62
2021/11/30 03:31:05;;;;;;;19.80;12.43;;;6.10;96.20;;;;;;4933853;29;20531;-62
2021/11/30 03:36:17;;;;;;;19.23;12.30;;;6.10;96.30;;;;;;4933282;29;20110;-62
2021/11/30 03:38:43;;;;;;;17.98;12.00;;;6.10;96.50;;;;;;4933778;29;20046;-63
2021/11/30 03:41:09;;;;;;;17.05;11.32;;;6.10;96.30;;;;;;4934240;29;20032;-62
2021/11/30 03:43:35;;;;;;;18.92;12.13;;;6.10;96.20;;;;;;4933236;29;20031;-63
2021/11/30 03:46:02;;;;;;;19.55;11.93;;;6.10;96.20;;;;;;4933819;29;20031;-63
2021/11/30 03:48:27;;;;;;;17.90;11.60;;;6.10;96.20;;;;;;4932525;29;20052;-63
2021/11/30 03:50:53;;;;;;;17.48;11.43;;;6.10;96.20;;;;;;4933686;29;20074;-63
2021/11/30 03:53:19;;;;;;;18.27;12.55;;;6.00;96.10;;;;;;4933481;29;20031;-63
2021/11/30 03:55:45;;;;;;;19.25;12.50;;;6.10;96.10;;;;;;4933881;29;20108;-63
2021/11/30 03:58:10;;;;;;;16.38;10.60;;;6.10;96.10;;;;;;4933747;29;20039;-63
2021/11/30 04:00:36;;;;;;;18.88;12.55;;;6.00;96.10;;;;;;4934197;29;20055;-63
2021/11/30 04:03:02;;;;;;;20.00;11.70;;;6.00;96.10;;;;;;4932506;29;20023;-63
2021/11/30 04:05:28;;;;;;;17.48;11.82;;;6.00;96.10;;;;;;4934265;29;20063;-63
2021/11/30 04:07:54;;;;;;;20.73;12.43;;;6.00;96.10;;;;;;4932658;29;20035;-63
2021/11/30 04:10:19;;;;;;;21.27;13.13;;;6.00;96.10;;;;;;4934869;29;20598;-63
2021/11/30 04:12:45;;;;;;;19.65;12.55;;;6.00;96.10;;;;;;4939281;29;20143;-62
2021/11/30 04:15:11;;;;;;;19.98;11.90;;;6.00;96.10;;;;;;4940226;29;20055;-63
2021/11/30 04:17:40;;;;;;;19.02;11.70;;;6.00;96.10;;;;;;4939613;29;20028;-63
2021/11/30 04:20:07;;;;;;;19.02;11.40;;;6.00;96.10;;;;;;4939784;29;20035;-62
2021/11/30 04:22:33;;;;;;;18.60;11.10;;;6.00;96.10;;;;;;4938655;29;20035;-63
2021/11/30 04:24:59;;;;;;;16.83;11.20;;;6.00;96.10;;;;;;4940152;29;20114;-63
2021/11/30 04:27:24;;;;;;;16.83;10.57;;;6.00;96.10;;;;;;4939600;29;20058;-63
2021/11/30 04:29:50;;;;;;;17.30;10.85;;;6.00;96.10;;;;;;4940055;29;20470;-63
2021/11/30 04:32:16;;;;;;;15.98;10.80;;;6.00;96.00;;;;;;4940000;29;20551;-63
2021/11/30 04:34:41;;;;;;;18.00;11.23;;;6.00;96.10;;;;;;4939287;29;20028;-63
2021/11/30 04:37:07;;;;;;;18.20;10.15;;;6.00;96.10;;;;;;4939781;29;20030;-63
2021/11/30 04:39:33;;;;;;;17.25;10.45;;;6.00;96.10;;;;;;4938631;29;20028;-63
2021/11/30 04:42:00;;;;;;;19.60;10.00;;;5.90;96.10;;;;;;4940254;29;20126;-62
2021/11/30 04:44:28;;;;;;;16.38;10.07;;;5.90;96.10;;;;;;4937114;29;20110;-62
2021/11/30 04:46:56;;;;;;;16.40;9.90;;;5.90;96.20;;;;;;4939141;29;20043;-62
2021/11/30 04:52:07;;;;;;;16.05;9.98;;;5.90;96.20;;;;;;4939301;29;20043;-62
2021/11/30 04:54:33;;;;;;;17.10;10.27;;;5.90;96.10;;;;;;4937571;29;20042;-63
2021/11/30 04:56:58;;;;;;;15.63;9.43;;;5.80;96.10;;;;;;4938170;29;20118;-62
2021/11/30 04:59:24;;;;;;;16.27;10.70;;;5.80;96.20;;;;;;4939626;29;20118;-62
2021/11/30 05:01:50;;;;;;;16.77;10.48;;;5.70;96.20;;;;;;4954411;29;20032;-62
2021/11/30 05:04:16;;;;;;;15.98;9.60;;;5.70;96.30;;;;;;4938551;29;20070;-62
2021/11/30 05:06:43;;;;;;;15.48;9.60;;;5.60;96.40;;;;;;4939407;29;20035;-62
2021/11/30 05:09:10;;;;;;;18.23;10.48;;;5.60;96.40;;;;;;4939285;29;20040;-62
2021/11/30 05:11:37;;;;;;;15.77;9.55;;;5.60;96.50;;;;;;4939318;29;20035;-62
2021/11/30 05:14:04;;;;;;;16.75;9.50;;;5.60;96.50;;;;;;4937175;29;20071;-62
2021/11/30 05:16:30;;;;;;;15.75;9.88;;;5.60;96.60;;;;;;4937901;29;20365;-62
2021/11/30 05:18:55;;;;;;;14.65;8.82;;;5.60;96.60;;;;;;4937993;29;20123;-63
2021/11/30 05:21:22;;;;;;;17.10;9.80;;;5.50;96.60;;;;;;4940019;29;20517;-62
2021/11/30 05:23:48;;;;;;;15.10;9.35;;;5.50;96.70;;;;;;4933449;29;20032;-63
2021/11/30 05:26:14;;;;;;;16.58;9.25;;;5.50;96.70;;;;;;4934198;29;20126;-63
2021/11/30 05:28:42;;;;;;;15.82;8.68;;;5.50;96.80;;;;;;4935033;29;20050;-62
2021/11/30 05:31:08;;;;;;;12.10;7.65;;;5.50;96.90;;;;;;4936363;29;20039;-63
2021/11/30 05:33:35;;;;;;;18.20;8.68;;;5.50;96.90;;;;;;4935684;29;20551;-63
2021/11/30 05:36:02;;;;;;;17.40;9.93;;;5.50;96.90;;;;;;4935972;29;20110;-63
2021/11/30 05:38:28;;;;;;;15.32;8.77;;;5.50;96.90;;;;;;4934848;29;20442;-63
2021/11/30 05:40:54;;;;;;;14.55;8.73;;;5.40;96.90;;;;;;4935762;29;20094;-62
2021/11/30 05:43:20;;;;;;;14.23;7.95;;;5.40;96.90;;;;;;4935568;29;20509;-63
2021/11/30 05:45:46;;;;;;;15.65;8.23;;;5.40;96.90;;;;;;4936338;29;20046;-62
2021/11/30 05:48:13;;;;;;;12.88;7.63;;;5.40;97.00;;;;;;4949553;28;20047;-62
2021/11/30 05:50:38;;;;;;;14.05;7.95;;;5.40;97.00;;;;;;4936389;29;20027;-62
2021/11/30 05:53:04;;;;;;;13.88;8.23;;;5.40;97.00;;;;;;4935781;29;20418;-62
2021/11/30 05:55:31;;;;;;;12.45;7.90;;;5.40;97.10;;;;;;4940856;29;20055;-62
2021/11/30 05:57:58;;;;;;;13.68;8.40;;;5.40;97.10;;;;;;4929874;29;20028;-62
2021/11/30 06:00:26;;;;;;;18.75;8.10;;;5.40;97.10;;;;;;4931695;29;20387;-62
2021/11/30 06:03:06;;;;;;;14.20;7.53;;;5.40;97.10;;;;;;4934307;29;20502;-62
2021/11/30 06:05:33;;;;;;;10.65;7.00;;;5.40;97.10;;;;;;4935999;29;20046;-62
2021/11/30 06:07:59;;;;;;;13.45;7.22;;;5.40;97.20;;;;;;4934619;29;20048;-62
2021/11/30 06:10:25;;;;;;;12.40;7.50;;;5.40;97.20;;;;;;4934506;29;20028;-62
2021/11/30 06:12:52;;;;;;;11.75;7.07;;;5.30;97.20;;;;;;4934986;29;20032;-62
2021/11/30 06:15:17;;;;;;;12.95;7.57;;;5.30;97.30;;;;;;4928237;29;20055;-62
2021/11/30 06:17:43;;;;;;;14.27;8.15;;;5.30;97.20;;;;;;4933200;29;20071;-62
2021/11/30 06:20:11;;;;;;;12.60;7.60;;;5.30;97.20;;;;;;4935422;29;20024;-62
2021/11/30 06:22:37;;;;;;;11.82;6.88;;;5.30;97.30;;;;;;4935125;29;20043;-63
2021/11/30 06:25:04;;;;;;;11.80;7.00;;;5.30;97.40;;;;;;4922200;29;20028;-62
2021/11/30 06:27:30;;;;;;;12.18;7.20;;;5.30;97.40;;;;;;4933936;29;20047;-62
2021/11/30 06:29:56;;;;;;;11.07;6.50;;;5.30;97.50;;;;;;4935520;29;20475;-62
2021/11/30 06:32:22;;;;;;;11.30;5.88;;;5.30;97.50;;;;;;4934581;29;20028;-63
2021/11/30 06:34:48;;;;;;;11.55;7.07;;;5.30;97.50;;;;;;4932728;29;20059;-62
2021/11/30 06:37:14;;;;;;;11.85;7.10;;;5.30;97.60;;;;;;4928645;29;20075;-63
2021/11/30 06:39:39;;;;;;;12.40;7.53;;;5.30;97.60;;;;;;4938630;29;20158;-62
2021/11/30 06:42:05;;;;;;;12.15;6.63;;;5.30;97.60;;;;;;4921123;29;20039;-63
2021/11/30 06:44:35;;;;;;;13.10;7.43;;;5.30;97.60;;;;;;4933356;29;20479;-63
2021/11/30 06:47:05;;;;;;;12.88;6.63;;;5.30;97.70;;;;;;4949646;29;20590;-63
2021/11/30 06:49:31;;;;;;;12.63;7.38;;;5.30;97.70;;;;;;4933362;29;20035;-63
2021/11/30 06:51:57;;;;;;;10.05;6.07;;;5.20;97.70;;;;;;4934833;29;20047;-62
2021/11/30 06:54:23;;;;;;;13.98;7.55;;;5.20;97.70;;;;;;4934741;29;20032;-63
2021/11/30 06:56:49;;;;;;;11.20;6.85;;;5.10;97.80;;;;;;4926498;29;20027;-62
2021/11/30 06:59:14;;;;;;;11.85;6.88;;;5.10;97.90;;;;;;4933890;29;20032;-63
2021/11/30 07:01:42;;;;;;;10.18;6.20;;;5.20;98.00;;;;;;4933932;29;20473;-63
2021/11/30 07:04:08;;;;;;;9.32;5.75;;;5.20;98.00;;;;;;4934190;29;20062;-63
2021/11/30 07:09:19;;;;;;;10.98;6.22;;;5.20;98.10;;;;;;4933506;29;20458;-63
2021/11/30 07:14:10;;;;;;;10.40;6.38;;;5.20;98.10;;;;;;4933569;29;20078;-62
2021/11/30 07:16:36;;;;;;;11.73;6.65;;;5.30;98.20;;;;;;4934510;29;20507;-63
2021/11/30 07:19:02;;;;;;;11.80;7.32;;;5.30;98.20;;;;;;4934058;29;20031;-63
2021/11/30 07:21:28;;;;;;;12.00;6.47;;;5.30;98.40;;;;;;4930711;29;20102;-63
2021/11/30 07:23:55;;;;;;;11.68;6.65;;;5.30;98.40;;;;;;4930256;29;20027;-63
2021/11/30 07:26:21;;;;;;;11.90;6.65;;;5.30;98.40;;;;;;4927822;29;20043;-63
2021/11/30 07:28:47;;;;;;;11.80;6.70;;;5.30;98.50;;;;;;4927834;29;20053;-63
2021/11/30 07:31:15;;;;;;;12.88;7.47;;;5.30;98.40;;;;;;4925542;29;20024;-63
2021/11/30 07:33:44;;;;;;;11.48;6.63;;;5.30;98.40;;;;;;4928549;29;20036;-63
2021/11/30 07:36:11;;;;;;;10.93;5.82;;;5.40;98.50;;;;;;4932914;29;20087;-62
2021/11/30 07:38:42;;;;;;;9.35;6.00;;;5.40;98.50;;;;;;4931930;29;20142;-63
2021/11/30 07:41:10;;;;;;;10.20;6.05;;;5.40;98.50;;;;;;4932995;29;20032;-63
2021/11/30 07:43:36;;;;;;;13.15;5.85;;;5.40;98.70;;;;;;4931450;29;20043;-63
2021/11/30 07:46:02;;;;;;;9.95;5.93;;;5.40;98.60;;;;;;4930770;29;20058;-65
2021/11/30 07:48:28;;;;;;;10.32;6.05;;;5.50;98.90;;;;;;4937363;28;20116;-63
2021/11/30 07:50:56;;;;;;;9.60;6.72;;;5.50;98.70;;;;;;4925818;29;20043;-63
2021/11/30 07:53:22;;;;;;;9.02;5.32;;;5.50;98.70;;;;;;4928553;29;20175;-63
2021/11/30 07:55:48;;;;;;;8.88;5.50;;;5.40;98.70;;;;;;4933889;29;20431;-62
2021/11/30 07:58:14;;;;;;;9.60;5.80;;;5.50;98.60;;;;;;4928937;29;20023;-63
2021/11/30 08:00:40;;;;;;;9.82;6.20;;;5.50;98.60;;;;;;4931156;29;20032;-63
2021/11/30 08:03:06;;;;;;;9.02;5.53;;;5.50;98.50;;;;;;4931103;29;20032;-63
2021/11/30 08:05:32;;;;;;;8.52;5.40;;;5.40;98.50;;;;;;4932319;29;20027;-63
2021/11/30 08:07:57;;;;;;;8.65;6.07;;;5.40;98.50;;;;;;4930838;29;20059;-63
2021/11/30 08:10:26;;;;;;;9.23;6.28;;;5.40;98.50;;;;;;4930731;29;20071;-63
2021/11/30 08:12:52;;;;;;;9.50;5.82;;;5.40;98.50;;;;;;4924489;29;20542;-63
2021/11/30 08:15:18;;;;;;;9.55;5.05;;;5.40;98.50;;;;;;4926456;29;20059;-63
2021/11/30 08:17:44;;;;;;;8.10;5.68;;;5.40;98.60;;;;;;4927157;29;20055;-63
2021/11/30 08:20:10;;;;;;;7.68;5.28;;;5.40;98.60;;;;;;4936762;29;20023;-63
2021/11/30 08:22:37;;;;;;;8.45;5.53;;;5.40;98.70;;;;;;4932966;28;20487;-62
2021/11/30 08:25:04;;;;;;;10.65;5.93;;;5.40;98.70;;;;;;4931485;29;20062;-63
2021/11/30 08:27:30;;;;;;;8.27;5.78;;;5.40;98.70;;;;;;4929587;29;20495;-63
2021/11/30 08:29:56;;;;;;;7.25;5.50;;;5.40;98.70;;;;;;4931813;29;20036;-63
2021/11/30 08:32:22;;;;;;;7.63;5.00;;;5.40;98.70;;;;;;4929941;29;20483;-63
2021/11/30 08:34:53;;;;;;;7.82;5.03;;;5.40;98.70;;;;;;4931119;29;20372;-63
2021/11/30 08:37:20;;;;;;;6.45;4.70;;;5.40;98.70;;;;;;4931989;29;20055;-63
2021/11/30 08:39:49;;;;;;;6.88;4.80;;;5.40;98.70;;;;;;4930882;29;20075;-63
2021/11/30 08:42:16;;;;;;;7.53;5.00;;;5.40;98.70;;;;;;4930710;29;20369;-63
2021/11/30 08:44:43;;;;;;;7.70;5.32;;;5.30;98.80;;;;;;4931291;29;20039;-63
2021/11/30 08:47:13;;;;;;;8.48;4.78;;;5.40;98.80;;;;;;4930663;29;20048;-62
2021/11/30 08:49:39;;;;;;;7.13;4.80;;;5.30;98.80;;;;;;4930633;29;20035;-63
2021/11/30 08:52:12;;;;;;;6.68;4.78;;;5.30;98.90;;;;;;4930111;29;20051;-63
2021/11/30 08:54:38;;;;;;;7.30;4.63;;;5.40;99.00;;;;;;4927222;29;20046;-63
2021/11/30 08:57:04;;;;;;;7.25;4.72;;;5.40;99.00;;;;;;4925072;29;20114;-63
2021/11/30 08:59:30;;;;;;;6.22;4.28;;;5.40;99.00;;;;;;4935153;29;20048;-63
2021/11/30 09:01:56;;;;;;;6.63;4.72;;;5.40;99.10;;;;;;4927586;29;20032;-64
2021/11/30 09:04:21;;;;;;;6.38;4.18;;;5.40;99.10;;;;;;4933256;29;20123;-63
2021/11/30 09:06:47;;;;;;;6.75;4.50;;;5.50;99.10;;;;;;4930371;29;20047;-61
2021/11/30 09:09:14;;;;;;;6.10;4.32;;;5.50;99.10;;;;;;4927686;29;20759;-62
2021/11/30 09:11:40;;;;;;;6.35;4.53;;;5.50;99.10;;;;;;4930513;29;20031;-63
2021/11/30 09:14:07;;;;;;;7.03;4.45;;;5.50;99.20;;;;;;4935782;29;20028;-63
2021/11/30 09:16:33;;;;;;;7.18;4.25;;;5.50;99.20;;;;;;4934412;29;20067;-63
2021/11/30 09:19:00;;;;;;;5.88;3.80;;;5.50;99.20;;;;;;4933746;29;20035;-63
2021/11/30 09:21:27;;;;;;;6.93;4.55;;;5.60;99.30;;;;;;4934270;29;20027;-64
2021/11/30 09:23:57;;;;;;;5.35;3.70;;;5.60;99.20;;;;;;4935202;29;20031;-64
2021/11/30 09:26:24;;;;;;;7.80;3.97;;;5.70;99.20;;;;;;4931080;29;20521;-64
2021/11/30 09:28:49;;;;;;;5.72;4.00;;;5.70;99.20;;;;;;4934086;29;20147;-65
2021/11/30 09:31:15;;;;;;;6.05;3.63;;;5.80;99.30;;;;;;4935490;29;20107;-64
2021/11/30 09:33:43;;;;;;;7.63;4.07;;;5.80;99.30;;;;;;4933132;29;20035;-65
2021/11/30 09:36:10;;;;;;;6.10;3.88;;;5.80;99.30;;;;;;4934514;29;20023;-62
2021/11/30 09:38:38;;;;;;;4.97;3.60;;;5.80;99.30;;;;;;4934730;29;20034;-65
2021/11/30 09:41:04;;;;;;;5.32;4.20;;;5.80;99.30;;;;;;4929631;29;20071;-67
2021/11/30 09:43:32;;;;;;;4.43;3.33;;;5.90;99.50;;;;;;4933133;29;20038;-67
2021/11/30 09:46:00;;;;;;;5.18;3.30;;;5.80;99.40;;;;;;4932613;29;20507;-65
2021/11/30 09:48:27;;;;;;;4.28;2.88;;;5.90;99.40;;;;;;4925623;29;20080;-67
2021/11/30 09:50:53;;;;;;;5.20;2.75;;;5.90;99.40;;;;;;4932068;29;20513;-66
2021/11/30 09:53:20;;;;;;;5.07;3.17;;;5.90;99.40;;;;;;4930219;29;20035;-66
2021/11/30 09:55:47;;;;;;;4.78;3.25;;;6.00;99.40;;;;;;4933311;29;20031;-65
2021/11/30 09:58:14;;;;;;;4.43;2.65;;;6.00;99.60;;;;;;4933107;29;20039;-65
2021/11/30 10:00:41;;;;;;;3.97;2.85;;;6.10;99.50;;;;;;4934121;29;20594;-64
2021/11/30 10:03:08;;;;;;;4.18;3.10;;;6.10;99.50;;;;;;4924509;29;20034;-64
2021/11/30 10:05:33;;;;;;;5.68;3.40;;;6.10;99.50;;;;;;4932672;29;20360;-63
2021/11/30 10:08:01;;;;;;;4.10;3.30;;;6.10;99.50;;;;;;4928497;29;20094;-63
2021/11/30 10:10:30;;;;;;;7.47;3.47;;;6.10;99.50;;;;;;4933520;29;20032;-63
2021/11/30 10:13:05;;;;;;;4.43;3.25;;;6.20;99.60;;;;;;4925902;29;20113;-63
2021/11/30 10:15:46;;;;;;;6.63;3.80;;;6.20;99.60;;;;;;4923539;29;20040;-63
2021/11/30 10:18:25;;;;;;;5.18;3.33;;;6.20;99.60;;;;;;4930511;29;20039;-63
2021/11/30 10:20:58;;;;;;;6.07;3.70;;;6.20;99.60;;;;;;4934262;29;20106;-63
2021/11/30 10:23:30;;;;;;;6.45;3.60;;;6.30;99.70;;;;;;4931930;29;20031;-62
2021/11/30 10:26:03;;;;;;;4.60;3.13;;;6.30;99.70;;;;;;4932565;29;20028;-62
2021/11/30 10:28:31;;;;;;;5.53;2.97;;;6.30;99.80;;;;;;4934155;29;20036;-62
2021/11/30 10:30:57;;;;;;;4.40;3.33;;;6.30;99.80;;;;;;4933253;29;20126;-62
2021/11/30 10:33:25;;;;;;;4.60;2.92;;;6.30;99.90;;;;;;4935493;29;20118;-62
2021/11/30 10:35:57;;;;;;;3.92;2.75;;;6.30;99.90;;;;;;4935710;29;20024;-62
2021/11/30 10:38:37;;;;;;;3.80;3.40;;;6.40;99.90;;;;;;4934320;29;20020;-63
2021/11/30 10:41:18;;;;;;;3.70;2.88;;;6.40;99.90;;;;;;4931874;29;20082;-63
2021/11/30 10:44:10;;;;;;;5.60;3.60;;;6.40;99.90;;;;;;4949726;29;20028;-62
2021/11/30 10:46:36;;;;;;;3.88;2.85;;;6.50;99.90;;;;;;4914547;29;20036;-63
2021/11/30 10:49:03;;;;;;;5.10;3.10;;;6.50;99.90;;;;;;4934904;29;20032;-63
2021/11/30 10:51:44;;;;;;;5.35;3.13;;;6.60;99.90;;;;;;4932372;29;20028;-63
2021/11/30 10:54:11;;;;;;;4.65;3.13;;;6.60;99.90;;;;;;4935179;29;20035;-62
2021/11/30 10:56:37;;;;;;;4.57;3.08;;;6.60;99.90;;;;;;4935093;29;20115;-62
2021/11/30 10:59:03;;;;;;;3.92;2.88;;;6.70;99.90;;;;;;4935282;29;20115;-63
2021/11/30 11:01:30;;;;;;;7.95;3.10;;;6.70;99.90;;;;;;4934690;29;20118;-63
2021/11/30 11:04:06;;;;;;;3.85;2.90;;;6.70;99.90;;;;;;4932909;29;20036;-62
2021/11/30 11:06:35;;;;;;;3.80;3.10;;;6.80;99.90;;;;;;4934023;29;20087;-64
2021/11/30 11:09:07;;;;;;;7.80;3.17;;;6.80;99.90;;;;;;4934730;29;20106;-63
2021/11/30 11:11:36;;;;;;;6.65;2.92;;;6.90;99.90;;;;;;4934136;29;20103;-62
2021/11/30 11:14:04;;;;;;;3.50;2.58;;;6.90;99.90;;;;;;4935174;29;20031;-62
2021/11/30 11:16:31;;;;;;;5.18;3.00;;;6.90;99.90;;;;;;4934857;29;20054;-63
2021/11/30 11:19:00;;;;;;;4.72;2.75;;;7.00;99.90;;;;;;4933252;29;20031;-63
2021/11/30 11:21:35;;;;;;;6.45;3.13;;;7.00;99.90;;;;;;4927868;29;20490;-63
2021/11/30 11:24:08;;;;;;;5.03;3.13;;;7.00;99.90;;;;;;4934590;29;20055;-62
2021/11/30 11:26:47;;;;;;;5.05;2.70;;;7.10;99.90;;;;;;4926105;29;20055;-62
2021/11/30 11:29:27;;;;;;;4.03;2.55;;;7.10;99.90;;;;;;4929733;29;20031;-62
2021/11/30 11:32:03;;;;;;;5.43;2.90;;;7.10;99.90;;;;;;4928784;29;20031;-63
2021/11/30 11:34:33;;;;;;;6.03;3.50;;;7.20;99.90;;;;;;4930939;29;20032;-62
2021/11/30 11:37:01;;;;;;;4.97;2.78;;;7.20;99.90;;;;;;4936903;29;20039;-62
2021/11/30 11:39:28;;;;;;;3.95;2.33;;;7.20;99.90;;;;;;4931149;28;20026;-62
2021/11/30 11:42:03;;;;;;;5.60;2.30;;;7.30;99.90;;;;;;4934186;29;20593;-65
2021/11/30 11:44:29;;;;;;;4.18;2.33;;;7.30;99.90;;;;;;4934275;28;20122;-62
2021/11/30 11:47:04;;;;;;;8.43;2.53;;;7.30;99.90;;;;;;4932878;29;20047;-63
2021/11/30 11:49:35;;;;;;;4.80;2.17;;;7.40;99.90;;;;;;4950669;29;20038;-63
2021/11/30 11:52:02;;;;;;;10.50;4.00;;;7.40;99.90;;;;;;4953906;28;20151;-63
2021/11/30 11:54:31;;;;;;;4.03;2.13;;;7.50;99.90;;;;;;4953551;28;20031;-62
2021/11/30 11:57:00;;;;;;;5.13;2.80;;;7.50;99.90;;;;;;4940002;28;20039;-62
2021/11/30 11:59:44;;;;;;;6.35;2.33;;;7.50;99.90;;;;;;4928881;29;20083;-63
2021/11/30 12:02:20;;;;;;;4.00;2.22;;;7.50;99.90;;;;;;4931821;29;20030;-62
2021/11/30 12:04:58;;;;;;;5.90;2.33;;;7.50;99.90;;;;;;4930939;29;20035;-63
2021/11/30 12:07:47;;;;;;;9.60;1.85;;;7.50;99.90;;;;;;4930745;29;20063;-63
2021/11/30 12:10:16;;;;;;;4.55;1.75;;;7.50;99.80;;;;;;4927320;29;20383;-63
2021/11/30 12:12:59;;;;;;;7.43;2.03;;;7.40;99.90;;;;;;4935730;29;20090;-63
2021/11/30 12:15:26;;;;;;;9.45;2.20;;;7.40;99.90;;;;;;4932274;29;20110;-63
2021/11/30 12:17:52;;;;;;;5.68;1.75;;;7.40;99.90;;;;;;4929532;29;20027;-63
2021/11/30 12:20:19;;;;;;;5.18;1.85;;;7.30;99.90;;;;;;4933644;29;20027;-63
2021/11/30 12:22:49;;;;;;;7.35;2.45;;;7.30;99.90;;;;;;4930860;29;20036;-63
2021/11/30 12:25:44;;;;;;;5.80;2.30;;;7.20;99.90;;;;;;4934358;29;20090;-63
2021/11/30 12:28:30;;;;;;;5.38;2.53;;;7.20;99.90;;;;;;4932469;29;20050;-62
2021/11/30 12:30:58;;;;;;;8.45;2.42;;;7.20;99.90;;;;;;4933956;29;20028;-63
2021/11/30 12:33:37;;;;;;;5.75;2.33;;;7.30;99.90;;;;;;4935226;29;20090;-63
2021/11/30 12:36:11;;;;;;;12.02;2.22;;;7.30;99.90;;;;;;4937898;29;20123;-63
2021/11/30 12:38:53;;;;;;;6.43;2.67;;;7.30;99.90;;;;;;4936182;29;20038;-63
2021/11/30 12:41:27;;;;;;;7.60;2.60;;;7.40;99.90;;;;;;4936421;29;20031;-64
2021/11/30 12:43:56;;;;;;;8.65;3.17;;;7.40;99.90;;;;;;4936216;29;20114;-63
2021/11/30 12:46:32;;;;;;;6.93;2.58;;;7.50;99.90;;;;;;4951338;29;20038;-63
2021/11/30 12:48:58;;;;;;;5.10;2.13;;;7.50;99.90;;;;;;4933563;29;20065;-64
2021/11/30 12:51:24;;;;;;;10.88;4.00;;;7.60;99.90;;;;;;4936517;29;20031;-64
2021/11/30 12:53:51;;;;;;;5.45;2.75;;;7.60;99.90;;;;;;4936454;29;20033;-63
2021/11/30 12:56:45;;;;;;;8.35;3.25;;;7.70;99.90;;;;;;4937520;29;20034;-63
2021/11/30 12:59:13;;;;;;;6.85;2.83;;;7.70;99.90;;;;;;4936663;29;20031;-63
2021/11/30 13:01:40;;;;;;;10.35;2.65;;;7.80;99.90;;;;;;4936331;29;20479;-63
2021/11/30 13:04:32;;;;;;;7.13;2.58;;;7.80;99.90;;;;;;4935621;29;20111;-63
2021/11/30 13:07:12;;;;;;;10.52;3.05;;;7.80;99.90;;;;;;4937519;29;20058;-63
2021/11/30 13:09:43;;;;;;;11.68;2.67;;;7.90;99.90;;;;;;4936172;29;20043;-63